CNY8 weather

Toronto (Sunnybrook Medical Centre) Heliport
Toronto, Ontario, Canada

Public forecast

Using degrees Celsius for public forecast. Weather courtesy of forecast.io.

METAR (pilot weather report)

Closest report is Billy Bishop Toronto City Centre Airport, 5.7 nm (10.6 km) S. Retrieved 2019/03/22 08:00 UTC (7 minutes ago):

CYTZ 220800Z AUTO 28007KT 9SM FEW020 OVC049 04/00 A2969 RMK SLP057

TAF (pilot weather forecast)

Closest forecast is Billy Bishop Toronto City Centre Airport, 5.7 nm (10.6 km) S. Retrieved 2019/03/22 08:00 UTC (7 minutes ago):

TAF CYTZ 220738Z 2208/2308 28008KT P6SM OVC040 FM220900 28008KT P6SM BKN040 BKN080 TEMPO 2209/2212 P6SM -SHSNRA BKN020 OVC040 FM221200 28008KT P6SM BKN030 TEMPO 2212/2218 BKN020 BECMG 2213/2215 32015G25KT FM221800 33020G32KT P6SM BKN030 FM222300 33022G38KT 6SM -SHSN BKN030 BKN060 FM230300 33022G38KT P6SM FEW030 BECMG 2306/2308 33018G32KT RMK FCST BASED ON AUTO OBS. NXT FCST BY 221400Z